< Cyclone 200207 2002 Season Cyclone 200209 >
Cyclone 200208 (BONNIE)
General InformationDetailed Track InformationTrack Information on Google MapsList of All Images || ResourceGoogle EarthGE AnimationAtom FeedGeoJSON
Detalied Best Track Wind (Time Zone = UTC)
Year Month Day Hour Lat. Long. Wind (kt) Gust (kt) Direc. of Major Storm Axis Radius of Major Storm Axis (nm) Radius of Minor Storm Axis (nm) Direc. of Major Gale Axis Radius of Major Gale Axis (nm) Radius of Minor Gale Axis (nm) Image
2002 4 7 18 -7.1 133.2 10 -1 symmetric - - symmetric - - Image
2002 4 8 00 -6.9 132.2 15 -1 symmetric - - symmetric - - Image
2002 4 8 06 -6.7 131.5 15 -1 symmetric - - symmetric - - Image
2002 4 8 12 -6.6 130.7 15 -1 symmetric - - symmetric - - Image
2002 4 8 18 -6.6 130.0 25 -1 symmetric - - symmetric - - Image
2002 4 9 00 -6.7 129.2 30 -1 symmetric - - symmetric - - Image
2002 4 9 06 -7.1 128.7 30 -1 symmetric - - symmetric - - Image
2002 4 9 12 -7.9 128.5 30 -1 symmetric - - symmetric - - Image
2002 4 9 15 -8.5 128.3 30 -1 symmetric - - symmetric - - Image
2002 4 9 18 -8.6 127.8 35 -1 symmetric - - symmetric - - Image
2002 4 9 21 -9.0 127.4 40 -1 symmetric - - symmetric - - Image
2002 4 10 00 -9.2 126.8 40 -1 symmetric - - symmetric - - Image
2002 4 10 03 -9.4 126.4 40 -1 symmetric - - symmetric - - Image
2002 4 10 06 -9.6 125.9 40 -1 symmetric - - symmetric - - Image
2002 4 10 09 -9.7 125.3 40 -1 symmetric - - symmetric - - Image
2002 4 10 12 -9.9 124.9 35 -1 symmetric - - symmetric - - Image
2002 4 10 15 -10.1 124.1 35 -1 symmetric - - symmetric - - Image
2002 4 10 21 -10.1 122.7 41 -1 symmetric - - symmetric - - Image
2002 4 11 03 -9.9 121.5 41 -1 symmetric - - symmetric - - Image
2002 4 11 09 -9.9 120.0 31 -1 symmetric - - symmetric - - Image
2002 4 12 03 -10.1 116.2 49 -1 symmetric - - symmetric - - Image
2002 4 12 06 -10.1 115.6 49 -1 symmetric - - symmetric - - Image
2002 4 12 09 -10.4 115.0 49 -1 symmetric - - symmetric - - Image
2002 4 12 12 -10.5 114.5 49 -1 symmetric - - symmetric - - Image
2002 4 12 15 -10.7 114.0 45 -1 symmetric - - symmetric - - Image
2002 4 12 18 -10.9 113.3 41 -1 symmetric - - symmetric - - Image
2002 4 12 21 -11.1 112.5 39 -1 symmetric - - symmetric - - Image
2002 4 13 00 -11.4 111.8 35 -1 symmetric - - symmetric - - Image
2002 4 13 03 -11.6 111.1 35 -1 symmetric - - symmetric - - Image
2002 4 13 06 -11.8 110.6 35 -1 symmetric - - symmetric - - Image
2002 4 13 09 -11.8 110.0 35 -1 symmetric - - symmetric - - Image
2002 4 13 12 -11.9 109.5 35 -1 symmetric - - symmetric - - Image
2002 4 13 15 -11.9 109.0 35 -1 symmetric - - symmetric - - Image
2002 4 13 18 -12.1 108.3 35 -1 symmetric - - symmetric - - Image
2002 4 13 21 -12.3 107.8 35 -1 symmetric - - symmetric - - Image
2002 4 14 00 -12.5 107.3 39 -1 symmetric - - symmetric - - Image
2002 4 14 03 -12.8 106.7 39 -1 symmetric - - symmetric - - Image
2002 4 14 06 -13.4 106.1 35 -1 symmetric - - symmetric - - Image
2002 4 14 09 -13.8 105.5 29 -1 symmetric - - symmetric - - Image
2002 4 14 12 -14.3 104.7 27 -1 symmetric - - symmetric - - Image
2002 4 14 15 -14.8 103.7 23 -1 symmetric - - symmetric - - Image
2002 4 14 18 -15.3 102.5 23 -1 symmetric - - symmetric - - Image
2002 4 15 00 -15.8 101.3 21 -1 symmetric - - symmetric - - Image
< Cyclone 200207 2002 Season Cyclone 200209 >

Help